Terminal Aerodrome Forecast
Issued by NWS Charleston, WV

Current Version | Previous Version | Text Only | Print | Product List | Glossary Off
Versions: 1 2 3 4 5 6 7 8 9 10 11 12 13 14 15 16 17 18 19 20 21 22 23 24 25 26

000
FTUS41 KRLX 281400 AAA
TAFEKN
TAF AMD
KEKN 281444Z 2815/2912 30010G15KT 2SM -SN BR BKN023 OVC035
     FM281700 31011G16KT 6SM -SN BKN030
     FM282100 30010G15KT P6SM BKN250
     FM290400 31006KT P6SM SKC=

USA.gov is the U.S. government's official web portal to all federal, state and local government web resources and services.